createdAt,value
2018-09-22T05:24:29.168Z,11.33
2018-09-22T05:26:58.071Z,13.80
2018-09-22T05:29:26.828Z,11.50
2018-09-22T05:31:55.573Z,13.90
2018-09-22T05:34:24.353Z,12.23
2018-09-22T05:36:53.112Z,12.33
2018-09-22T05:39:21.939Z,12.50
2018-09-22T05:41:50.688Z,10.53
2018-09-22T05:44:19.300Z,12.60
2018-09-22T05:46:47.980Z,14.20
2018-09-22T05:49:16.653Z,12.30
2018-09-22T05:51:45.481Z,13.53
2018-09-22T05:54:14.977Z,10.23
2018-09-22T05:56:43.661Z,10.53
2018-09-22T05:59:12.391Z,10.57
2018-09-22T06:01:41.100Z,11.47
2018-09-22T06:04:09.864Z,9.27
2018-09-22T06:06:38.553Z,7.47
2018-09-22T06:09:09.416Z,13.03
2018-09-22T06:11:38.244Z,13.63
2018-09-22T06:14:07.137Z,11.47
2018-09-22T06:16:35.862Z,13.07
2018-09-22T06:19:04.571Z,15.60
2018-09-22T06:21:33.364Z,12.30
2018-09-22T06:24:02.136Z,7.77
2018-09-22T06:26:30.868Z,11.30
2018-09-22T06:28:59.521Z,9.97
2018-09-22T06:31:28.322Z,18.80
2018-09-22T06:33:57.011Z,10.73
2018-09-22T06:36:26.166Z,14.10
2018-09-22T06:38:55.037Z,12.70
2018-09-22T06:41:23.867Z,12.93
2018-09-22T06:43:52.659Z,11.57
2018-09-22T06:46:21.487Z,17.27
2018-09-22T06:48:50.187Z,16.67
2018-09-22T06:51:19.541Z,9.47
2018-09-22T06:53:48.220Z,13.17
2018-09-22T06:56:16.955Z,14.33
2018-09-22T06:58:45.663Z,23.17
2018-09-22T07:01:14.512Z,12.50
2018-09-22T07:03:43.167Z,10.03
2018-09-22T07:06:11.982Z,11.77
2018-09-22T07:08:40.713Z,13.10
2018-09-22T07:11:09.407Z,29.47
2018-09-22T07:13:38.111Z,9.10
2018-09-22T07:16:06.935Z,13.20
2018-09-22T07:18:35.672Z,12.97
2018-09-22T07:21:06.381Z,10.73
2018-09-22T07:23:35.046Z,10.30
2018-09-22T07:26:04.243Z,12.37
2018-09-22T07:28:33.075Z,10.27
2018-09-22T07:31:01.792Z,9.20
2018-09-22T07:33:30.452Z,10.93
2018-09-22T07:35:59.115Z,9.63
2018-09-22T07:38:27.767Z,11.20
2018-09-22T07:40:56.462Z,11.67
2018-09-22T07:45:50.333Z,11.87
2018-09-22T07:48:19.008Z,10.80
2018-09-22T07:50:47.688Z,9.03
2018-09-22T07:53:16.360Z,11.60
2018-09-22T07:55:45.112Z,8.30
2018-09-22T07:58:13.839Z,7.23
2018-09-22T08:00:42.643Z,13.83
2018-09-22T08:03:11.335Z,12.67
2018-09-22T08:05:40.039Z,10.57
2018-09-22T08:08:08.890Z,12.50
2018-09-22T08:10:37.622Z,15.00
2018-09-22T08:13:06.739Z,12.67
2018-09-22T08:15:35.387Z,7.00
2018-09-22T08:18:04.051Z,9.50
2018-09-22T08:20:32.793Z,6.97
2018-09-22T08:23:01.602Z,6.43
2018-09-22T08:25:30.281Z,6.23
2018-09-22T08:27:59.019Z,7.43
2018-09-22T08:30:29.126Z,10.10
2018-09-22T08:32:58.017Z,9.60
2018-09-22T08:35:26.785Z,9.57
2018-09-22T08:37:55.443Z,8.47
2018-09-22T08:40:24.111Z,10.80
2018-09-22T08:42:52.833Z,10.33
2018-09-22T08:45:21.862Z,11.30
2018-09-22T08:47:50.553Z,8.13
2018-09-22T08:50:19.312Z,10.77
2018-09-22T08:52:48.011Z,8.30
2018-09-22T08:55:16.796Z,7.27
2018-09-22T08:57:45.451Z,8.53
2018-09-22T09:00:14.276Z,10.47
2018-09-22T09:02:42.988Z,7.70
2018-09-22T09:05:11.855Z,9.20
2018-09-22T09:07:40.560Z,10.83
2018-09-22T09:10:09.400Z,11.17
2018-09-22T09:12:38.111Z,8.77
2018-09-22T09:15:06.967Z,10.40
2018-09-22T09:17:35.581Z,10.50
2018-09-22T09:20:04.372Z,10.67
2018-09-22T09:22:33.078Z,8.40
2018-09-22T09:25:01.901Z,9.90
2018-09-22T09:27:30.677Z,10.97
2018-09-22T09:29:59.403Z,11.70
2018-09-22T09:32:28.128Z,9.67
2018-09-22T09:34:56.990Z,10.60
2018-09-22T09:37:25.646Z,9.57
2018-09-22T09:39:54.432Z,9.47
2018-09-22T09:42:23.191Z,9.50
2018-09-22T09:44:51.997Z,10.03
2018-09-22T09:47:21.553Z,6.63
2018-09-22T09:49:50.777Z,9.43
2018-09-22T09:52:19.509Z,13.43
2018-09-22T09:54:48.330Z,9.70
2018-09-22T09:57:17.153Z,11.67
2018-09-22T09:59:46.923Z,14.37
2018-09-22T10:02:15.647Z,9.30
2018-09-22T10:04:44.409Z,10.85
2018-09-22T10:07:13.115Z,6.35
2018-09-22T10:09:41.817Z,8.58
2018-09-22T10:12:10.484Z,7.00
2018-09-22T10:14:39.296Z,8.90
2018-09-22T10:17:08.621Z,9.65
2018-09-22T10:19:37.287Z,9.35
2018-09-22T10:22:06.004Z,7.45
2018-09-22T10:24:34.757Z,7.80
2018-09-22T10:27:03.455Z,9.98
2018-09-22T10:29:32.242Z,7.33
2018-09-22T10:32:01.089Z,8.18
2018-09-22T10:34:29.851Z,8.28
2018-09-22T10:36:58.589Z,8.05
2018-09-22T10:39:27.322Z,9.90
2018-09-22T10:41:56.029Z,7.12
2018-09-22T10:44:24.785Z,5.65
2018-09-22T10:46:53.589Z,9.73
2018-09-22T10:49:22.784Z,8.85
2018-09-22T10:51:52.126Z,9.75
2018-09-22T10:54:20.837Z,7.05
2018-09-22T10:56:49.488Z,7.80
2018-09-22T10:59:18.140Z,9.15
2018-09-22T11:01:46.818Z,7.33
2018-09-22T11:04:15.455Z,9.35
2018-09-22T11:06:44.139Z,6.60
2018-09-22T11:09:12.840Z,6.40
2018-09-22T11:11:41.585Z,7.95
2018-09-22T11:14:10.267Z,8.23
2018-09-22T11:16:39.193Z,8.40
2018-09-22T11:19:07.880Z,4.90
2018-09-22T11:21:36.582Z,9.53
2018-09-22T11:24:05.336Z,5.58
2018-09-22T11:26:34.107Z,6.95
2018-09-22T11:29:02.985Z,9.23
2018-09-22T11:31:31.825Z,5.35
2018-09-22T11:34:00.616Z,9.38
2018-09-22T11:36:29.364Z,6.92
2018-09-22T11:38:58.228Z,4.40
2018-09-22T11:41:27.039Z,4.97
2018-09-22T11:43:55.806Z,5.47
2018-09-22T11:46:24.654Z,3.52
2018-09-22T11:48:53.389Z,5.97
2018-09-22T11:51:22.117Z,4.22
2018-09-22T11:53:50.795Z,4.20
2018-09-22T11:56:19.482Z,3.90
2018-09-22T11:58:48.319Z,6.05
2018-09-22T12:01:17.030Z,5.17
2018-09-22T12:03:45.740Z,9.93
2018-09-22T12:06:14.538Z,5.12
2018-09-22T12:08:43.336Z,3.70
2018-09-22T12:11:12.076Z,5.62
2018-09-22T12:13:40.724Z,3.50
2018-09-22T12:16:09.491Z,5.03
2018-09-22T12:18:38.252Z,2.85
2018-09-22T12:21:07.305Z,4.85
2018-09-22T12:23:35.996Z,3.52
2018-09-22T12:26:04.663Z,3.90
2018-09-22T12:28:33.359Z,5.42
2018-09-22T12:31:02.232Z,5.20
2018-09-22T12:33:30.955Z,5.92
2018-09-22T12:36:00.003Z,6.05
2018-09-22T12:38:28.750Z,4.12
2018-09-22T12:40:57.544Z,6.58
2018-09-22T12:43:26.233Z,3.22
2018-09-22T12:45:54.952Z,5.20
2018-09-22T12:48:23.624Z,5.20
2018-09-22T12:50:52.298Z,4.70
2018-09-22T12:53:20.962Z,4.25
2018-09-22T12:55:49.631Z,3.08
2018-09-22T12:58:18.420Z,3.40
2018-09-22T13:00:47.144Z,3.35
2018-09-22T13:03:15.903Z,5.62
2018-09-22T13:05:44.584Z,3.90
2018-09-22T13:08:13.350Z,3.27
2018-09-22T13:10:42.045Z,5.62
2018-09-22T13:13:10.720Z,4.85
2018-09-22T13:15:39.473Z,4.92
2018-09-22T13:18:08.306Z,3.60
2018-09-22T13:20:37.021Z,5.05
2018-09-22T13:23:06.178Z,3.87
2018-09-22T13:25:34.902Z,7.53
2018-09-22T13:28:03.599Z,4.85
2018-09-22T13:30:32.267Z,4.37
2018-09-22T13:33:01.016Z,5.70
2018-09-22T13:35:29.679Z,4.35
2018-09-22T13:37:58.346Z,5.12
2018-09-22T13:40:27.021Z,3.20
2018-09-22T13:42:55.777Z,3.40
2018-09-22T13:45:24.484Z,5.15
2018-09-22T13:47:53.316Z,4.08
2018-09-22T13:50:22.106Z,3.45
2018-09-22T13:52:50.830Z,6.47
2018-09-22T13:55:20.402Z,5.83
2018-09-22T13:57:49.075Z,3.50
2018-09-22T14:00:19.103Z,5.90
2018-09-22T14:02:47.774Z,5.40
2018-09-22T14:05:16.527Z,3.85
2018-09-22T14:07:45.197Z,4.10
2018-09-22T14:10:14.139Z,4.75
2018-09-22T14:12:42.828Z,5.37
2018-09-22T14:15:11.549Z,5.08
2018-09-22T14:17:40.267Z,7.47
2018-09-22T14:20:09.009Z,3.08
2018-09-22T14:22:37.802Z,5.87
2018-09-22T14:25:06.605Z,4.30
2018-09-22T14:27:35.857Z,6.00
2018-09-22T14:30:06.250Z,4.30
2018-09-22T14:32:35.118Z,4.75
2018-09-22T14:35:03.960Z,3.58
2018-09-22T14:37:32.623Z,4.67
2018-09-22T14:40:01.424Z,4.00
2018-09-22T14:42:30.216Z,6.15
2018-09-22T14:44:58.966Z,4.15
2018-09-22T14:47:27.782Z,6.50
2018-09-22T14:49:56.486Z,6.53
2018-09-22T14:52:25.208Z,4.17
2018-09-22T14:54:53.899Z,4.12
2018-09-22T14:57:22.602Z,4.47
2018-09-22T14:59:51.276Z,4.62
2018-09-22T15:02:20.030Z,5.08
2018-09-22T15:04:48.784Z,7.12
2018-09-22T15:07:17.606Z,7.53
2018-09-22T15:09:46.383Z,5.50
2018-09-22T15:12:15.069Z,7.17
2018-09-22T15:14:43.813Z,5.78
2018-09-22T15:17:12.592Z,6.00
2018-09-22T15:19:41.368Z,8.18
2018-09-22T15:22:10.139Z,6.75
2018-09-22T15:24:38.885Z,7.65
2018-09-22T15:27:07.663Z,6.25
2018-09-22T15:29:36.375Z,5.95
2018-09-22T15:32:05.097Z,5.22
2018-09-22T15:34:33.870Z,10.78
2018-09-22T15:37:02.681Z,5.17
2018-09-22T15:39:31.355Z,9.13
2018-09-22T15:42:00.174Z,6.70
2018-09-22T15:44:28.960Z,4.95
2018-09-22T15:46:57.659Z,4.92
2018-09-22T15:49:26.396Z,6.45
2018-09-22T15:51:55.070Z,8.70
2018-09-22T15:54:23.868Z,5.70
2018-09-22T15:56:52.554Z,5.62
2018-09-22T15:59:21.213Z,7.80
2018-09-22T16:01:49.915Z,9.50
2018-09-22T16:04:18.631Z,7.50
2018-09-22T16:06:47.365Z,8.95
2018-09-22T16:09:16.033Z,7.22
2018-09-22T16:11:44.803Z,6.53
2018-09-22T16:14:13.553Z,6.00
2018-09-22T16:16:42.234Z,7.65
2018-09-22T16:19:10.944Z,6.08
2018-09-22T16:21:39.732Z,7.12
2018-09-22T16:24:08.620Z,6.80
2018-09-22T16:26:37.293Z,8.75
2018-09-22T16:29:06.040Z,6.23
2018-09-22T16:31:34.815Z,11.63
2018-09-22T16:34:03.719Z,9.67
2018-09-22T16:36:32.445Z,6.83
2018-09-22T16:39:01.156Z,9.97
2018-09-22T16:41:29.923Z,8.60
2018-09-22T16:43:58.802Z,10.77
2018-09-22T16:46:27.518Z,9.97
2018-09-22T16:48:56.313Z,12.10
2018-09-22T16:51:25.049Z,13.70
2018-09-22T16:53:53.735Z,15.33
2018-09-22T16:56:23.043Z,17.90
2018-09-22T16:58:51.831Z,13.40
2018-09-22T17:01:20.519Z,14.70
2018-09-22T17:03:49.279Z,15.17
2018-09-22T17:06:18.194Z,11.57
2018-09-22T17:08:46.973Z,18.67
2018-09-22T17:11:15.654Z,18.90
2018-09-22T17:13:44.539Z,18.47
2018-09-22T17:16:13.257Z,19.70
2018-09-22T17:18:41.920Z,15.00
2018-09-22T17:21:10.671Z,14.13
2018-09-22T17:23:39.466Z,21.83
2018-09-22T17:26:08.206Z,18.73
2018-09-22T17:28:37.330Z,16.93
2018-09-22T17:31:06.150Z,13.80
2018-09-22T17:33:34.904Z,13.13
2018-09-22T17:36:03.664Z,12.63
2018-09-22T17:38:32.359Z,16.80
2018-09-22T17:41:01.221Z,9.67
2018-09-22T17:43:29.895Z,17.77
2018-09-22T17:45:59.156Z,11.97
2018-09-22T17:48:27.928Z,10.43
2018-09-22T17:50:56.670Z,11.67
2018-09-22T17:53:25.478Z,13.87
2018-09-22T17:55:54.382Z,13.40
2018-09-22T17:58:23.305Z,16.53
2018-09-22T18:00:52.137Z,13.40
2018-09-22T18:03:20.926Z,18.90
2018-09-22T18:05:49.655Z,16.43
2018-09-22T18:08:18.605Z,15.27
2018-09-22T18:10:47.336Z,14.63
2018-09-22T18:13:16.156Z,13.20
2018-09-22T18:15:45.004Z,17.40
2018-09-22T18:18:13.683Z,18.33
2018-09-22T18:20:42.396Z,14.43
2018-09-22T18:23:11.102Z,19.13
2018-09-22T18:25:39.915Z,20.90
2018-09-22T18:28:08.578Z,17.17
2018-09-22T18:30:37.280Z,16.73
2018-09-22T18:33:06.036Z,13.03
2018-09-22T18:35:34.923Z,14.13
2018-09-22T18:38:03.616Z,18.03
2018-09-22T18:40:32.278Z,12.37
2018-09-22T18:43:01.112Z,15.97
2018-09-22T18:45:29.967Z,14.53
2018-09-22T18:47:58.718Z,11.47
2018-09-22T18:50:27.460Z,14.30
2018-09-22T18:52:56.207Z,12.63
2018-09-22T18:55:25.061Z,13.83
2018-09-22T18:57:53.753Z,14.03
2018-09-22T19:00:23.821Z,17.60
2018-09-22T19:02:52.637Z,17.30
2018-09-22T19:05:21.361Z,14.57
2018-09-22T19:07:50.051Z,15.50
2018-09-22T19:10:18.828Z,17.60
2018-09-22T19:12:47.609Z,16.63
2018-09-22T19:15:52.415Z,18.10
2018-09-22T19:18:26.356Z,13.97
2018-09-22T19:20:58.460Z,14.03
2018-09-22T19:23:33.470Z,17.43
2018-09-22T19:26:06.259Z,18.93
2018-09-22T19:28:40.772Z,14.70
2018-09-22T19:31:13.152Z,13.23
2018-09-22T19:33:47.973Z,13.20
2018-09-22T19:36:21.689Z,11.77
2018-09-22T19:38:55.594Z,9.23
2018-09-22T19:41:43.362Z,18.00
2018-09-22T19:44:24.610Z,13.20
2018-09-22T19:47:30.218Z,12.77
2018-09-22T19:50:04.668Z,12.67
2018-09-22T19:52:43.684Z,14.23
2018-09-22T19:55:12.447Z,9.53
2018-09-22T19:57:41.180Z,10.30
2018-09-22T20:00:13.394Z,11.97
2018-09-22T20:02:42.719Z,10.17
2018-09-22T20:05:11.387Z,11.13
2018-09-22T20:07:40.160Z,10.93
2018-09-22T20:10:09.529Z,13.03
2018-09-22T20:12:38.321Z,17.77
2018-09-22T20:15:07.070Z,16.93
2018-09-22T20:17:35.799Z,15.60
2018-09-22T20:20:04.688Z,17.93
2018-09-22T20:22:33.377Z,14.90
2018-09-22T20:25:02.072Z,17.50
2018-09-22T20:27:30.750Z,14.57
2018-09-22T20:30:00.539Z,17.40
2018-09-22T20:32:29.428Z,15.73
2018-09-22T20:34:58.122Z,14.57
2018-09-22T20:37:26.812Z,13.87
2018-09-22T20:39:55.517Z,13.20
2018-09-22T20:44:59.360Z,10.97
2018-09-22T20:47:28.030Z,10.93
2018-09-22T20:49:56.748Z,11.93
2018-09-22T20:52:25.461Z,10.33
2018-09-22T20:54:54.162Z,11.13
2018-09-22T20:57:22.895Z,10.87
2018-09-22T20:59:51.716Z,11.77
2018-09-22T21:02:20.393Z,11.67
2018-09-22T21:04:49.093Z,11.33
2018-09-22T21:07:17.782Z,11.40
2018-09-22T21:09:46.497Z,12.83
2018-09-22T21:12:15.159Z,11.93
2018-09-22T21:14:43.831Z,14.10
2018-09-22T21:17:12.518Z,12.13
2018-09-22T21:19:41.212Z,13.37
2018-09-22T21:22:09.983Z,11.73
2018-09-22T21:24:38.720Z,13.73
2018-09-22T21:27:07.390Z,14.37
2018-09-22T21:29:36.103Z,15.00
2018-09-22T21:32:04.811Z,14.90
2018-09-22T21:34:33.528Z,15.40
2018-09-22T21:37:02.266Z,12.77
2018-09-22T21:39:30.980Z,17.23
2018-09-22T21:41:59.785Z,11.83
2018-09-22T21:44:28.396Z,18.13
2018-09-22T21:46:57.069Z,17.17
2018-09-22T21:49:25.840Z,17.73
2018-09-22T21:51:54.569Z,16.10
2018-09-22T21:54:23.273Z,13.30
2018-09-22T21:56:52.008Z,14.20
2018-09-22T21:59:20.672Z,14.07
2018-09-22T22:01:49.358Z,14.70
2018-09-22T22:04:18.079Z,15.07
2018-09-22T22:06:46.829Z,15.90
2018-09-22T22:09:15.897Z,14.20
2018-09-22T22:11:45.540Z,14.60
2018-09-22T22:14:14.220Z,13.63
2018-09-22T22:16:42.906Z,16.40
2018-09-22T22:19:11.661Z,16.83
2018-09-22T22:21:40.343Z,14.17
2018-09-22T22:24:09.019Z,18.57
2018-09-22T22:26:37.681Z,17.67
2018-09-22T22:29:06.579Z,17.93
2018-09-22T22:31:35.297Z,15.47
2018-09-22T22:34:04.075Z,16.43
2018-09-22T22:36:32.760Z,16.87
2018-09-22T22:39:01.424Z,18.50
2018-09-22T22:41:30.236Z,16.87
2018-09-22T22:43:58.926Z,19.20
2018-09-22T22:46:27.610Z,18.57
2018-09-22T22:48:56.362Z,18.20
2018-09-22T22:51:25.046Z,21.63
2018-09-22T22:53:53.787Z,19.90
2018-09-22T22:56:22.568Z,21.63
2018-09-22T22:58:51.228Z,18.97
2018-09-22T23:01:20.013Z,19.37
2018-09-22T23:03:48.754Z,20.20
2018-09-22T23:06:17.443Z,21.60
2018-09-22T23:08:46.208Z,25.77
2018-09-22T23:11:14.952Z,20.37
2018-09-22T23:13:43.700Z,24.73
2018-09-22T23:16:12.398Z,23.43
2018-09-22T23:18:41.057Z,24.27
2018-09-22T23:21:09.842Z,21.83
2018-09-22T23:23:38.548Z,22.53
2018-09-22T23:26:07.293Z,22.70
2018-09-22T23:28:36.028Z,23.73
2018-09-22T23:31:04.677Z,23.90
2018-09-22T23:33:33.416Z,28.87
2018-09-22T23:36:02.270Z,25.57
2018-09-22T23:38:31.241Z,26.10
2018-09-22T23:41:00.038Z,29.93
2018-09-22T23:43:28.768Z,27.73
2018-09-22T23:45:57.423Z,27.10
2018-09-22T23:48:26.129Z,28.47
2018-09-22T23:50:54.965Z,27.90
2018-09-22T23:53:23.595Z,27.93
2018-09-22T23:55:52.300Z,29.97
2018-09-22T23:58:20.948Z,29.57
